Terminal Aerodrome Forecast
Issued by NWS Sioux Falls, SD

Home | Current Version | Previous Version | Text Only | Print | Product List | Glossary On
Versions: 1 2 3 4 5 6 7 8 9 10 11 12 13 14 15 16 17 18 19 20 21 22
000
FTUS43 KFSD 270254 AAB
TAFSUX
TAF AMD
KSUX 270254Z 2703/2724 08017G24KT P6SM VCSH SCT025 OVC035
     FM270500 08019G27KT P6SM SHRA OVC020
     FM271200 08021G29KT 4SM SHRA OVC008
     FM272100 09018G25KT 6SM SHRA OVC015=

USA.gov is the U.S. government's official web portal to all federal, state and local government web resources and services.